createdAt,value
2017-09-23T00:00:53.398Z,56.80
2017-09-23T00:03:20.958Z,56.70
2017-09-23T00:05:48.513Z,56.60
2017-09-23T00:08:16.090Z,56.80
2017-09-23T00:10:44.411Z,57.00
2017-09-23T00:13:11.972Z,56.90
2017-09-23T00:15:39.533Z,56.60
2017-09-23T00:18:07.090Z,56.80
2017-09-23T00:20:34.673Z,56.80
2017-09-23T00:23:02.226Z,56.70
2017-09-23T00:25:29.783Z,56.80
2017-09-23T00:27:57.342Z,56.80
2017-09-23T00:30:24.901Z,57.50
2017-09-23T00:32:52.486Z,57.20
2017-09-23T00:35:20.039Z,57.20
2017-09-23T00:37:47.586Z,57.50
2017-09-23T00:40:15.137Z,57.50
2017-09-23T00:42:42.695Z,57.40
2017-09-23T00:45:10.281Z,57.80
2017-09-23T00:47:38.612Z,57.80
2017-09-23T00:50:06.178Z,57.80
2017-09-23T00:52:33.734Z,57.80
2017-09-23T00:55:01.327Z,58.10
2017-09-23T00:57:28.905Z,58.50
2017-09-23T00:59:57.226Z,58.30
2017-09-23T01:02:24.790Z,58.20
2017-09-23T01:04:52.346Z,58.00
2017-09-23T01:07:19.902Z,57.90
2017-09-23T01:09:47.492Z,57.60
2017-09-23T01:12:15.042Z,57.60
2017-09-23T01:14:42.590Z,57.40
2017-09-23T01:17:10.171Z,57.30
2017-09-23T01:19:37.728Z,57.20
2017-09-23T01:22:05.310Z,57.50
2017-09-23T01:24:33.638Z,57.50
2017-09-23T01:27:01.198Z,57.40
2017-09-23T01:29:28.751Z,57.20
2017-09-23T01:31:56.312Z,57.10
2017-09-23T01:34:23.908Z,57.10
2017-09-23T01:36:51.454Z,57.10
2017-09-23T01:39:19.006Z,57.00
2017-09-23T01:41:46.566Z,56.80
2017-09-23T01:44:14.122Z,57.00
2017-09-23T01:46:41.713Z,57.00
2017-09-23T01:49:09.270Z,56.90
2017-09-23T01:51:36.830Z,56.90
2017-09-23T01:54:05.159Z,57.40
2017-09-23T01:56:32.721Z,57.40
2017-09-23T01:59:00.307Z,57.20
2017-09-23T02:01:27.881Z,57.70
2017-09-23T02:03:55.437Z,57.70
2017-09-23T02:06:22.986Z,58.10
2017-09-23T02:08:50.549Z,58.90
2017-09-23T02:11:18.133Z,59.00
2017-09-23T02:13:46.449Z,58.30
2017-09-23T02:16:14.006Z,58.30
2017-09-23T02:18:41.557Z,58.20
2017-09-23T02:21:09.129Z,58.00
2017-09-23T02:23:36.706Z,58.20
2017-09-23T02:26:04.263Z,58.20
2017-09-23T02:28:31.823Z,57.90
2017-09-23T02:30:59.490Z,57.80
2017-09-23T02:33:27.054Z,58.00
2017-09-23T02:35:54.638Z,58.10
2017-09-23T02:38:22.958Z,58.10
2017-09-23T02:40:50.518Z,58.00
2017-09-23T02:43:18.075Z,58.30
2017-09-23T02:45:45.640Z,58.30
2017-09-23T02:48:13.230Z,58.10
2017-09-23T02:50:40.786Z,58.00
2017-09-23T02:53:08.338Z,58.10
2017-09-23T02:55:35.897Z,57.90
2017-09-23T02:58:03.455Z,58.00
2017-09-23T03:00:31.034Z,57.70
2017-09-23T03:02:58.638Z,57.70
2017-09-23T03:05:26.192Z,58.10
2017-09-23T03:07:53.745Z,58.00
2017-09-23T03:10:21.298Z,57.90
2017-09-23T03:12:49.643Z,58.00
2017-09-23T03:15:17.198Z,58.00
2017-09-23T03:17:44.750Z,57.90
2017-09-23T03:20:12.310Z,57.90
2017-09-23T03:22:39.870Z,58.10
2017-09-23T03:25:07.461Z,58.10
2017-09-23T03:27:35.781Z,57.90
2017-09-23T03:30:03.390Z,57.80
2017-09-23T03:32:31.715Z,58.30
2017-09-23T03:34:59.271Z,58.30
2017-09-23T03:37:26.854Z,58.30
2017-09-23T03:39:54.441Z,58.40
2017-09-23T03:42:22.764Z,58.10
2017-09-23T03:44:50.320Z,58.10
2017-09-23T03:47:17.879Z,58.10
2017-09-23T03:49:45.470Z,58.00
2017-09-23T03:52:13.031Z,58.10
2017-09-23T03:54:40.586Z,58.40
2017-09-23T03:57:08.143Z,58.60
2017-09-23T03:59:35.698Z,58.40
2017-09-23T04:02:03.286Z,58.30
2017-09-23T04:04:31.705Z,58.40
2017-09-23T04:06:59.267Z,58.40
2017-09-23T04:09:26.818Z,58.30
2017-09-23T04:11:54.374Z,58.60
2017-09-23T04:14:21.963Z,58.50
2017-09-23T04:16:49.513Z,58.70
2017-09-23T04:19:17.065Z,59.00
2017-09-23T04:21:44.654Z,59.30
2017-09-23T04:24:12.210Z,59.50
2017-09-23T04:26:39.793Z,59.70
2017-09-23T04:29:07.351Z,59.80
2017-09-23T04:31:34.902Z,59.90
2017-09-23T04:34:02.478Z,59.70
2017-09-23T04:36:30.797Z,59.60
2017-09-23T04:38:58.374Z,59.60
2017-09-23T04:41:25.933Z,59.50
2017-09-23T04:43:53.486Z,59.50
2017-09-23T04:46:21.046Z,59.70
2017-09-23T04:48:48.599Z,60.10
2017-09-23T04:51:16.154Z,60.30
2017-09-23T04:53:43.708Z,60.30
2017-09-23T04:56:11.259Z,59.80
2017-09-23T04:58:38.817Z,59.50
2017-09-23T05:01:06.375Z,59.40
2017-09-23T05:03:33.932Z,59.50
2017-09-23T05:06:01.486Z,59.50
2017-09-23T05:08:29.043Z,59.80
2017-09-23T05:17:42.436Z,60.20
2017-09-23T05:20:10.025Z,64.00
2017-09-23T05:22:37.577Z,64.00
2017-09-23T05:25:05.135Z,63.50
2017-09-23T05:27:32.689Z,63.00
2017-09-23T05:30:00.247Z,62.40
2017-09-23T05:32:27.833Z,62.10
2017-09-23T05:34:55.385Z,63.00
2017-09-23T05:37:22.941Z,62.80
2017-09-23T05:39:50.497Z,62.20
2017-09-23T05:42:18.062Z,62.20
2017-09-23T05:44:45.649Z,62.10
2017-09-23T05:47:13.973Z,62.20
2017-09-23T05:49:41.522Z,62.20
2017-09-23T05:52:09.082Z,62.40
2017-09-23T05:54:36.639Z,62.40
2017-09-23T05:57:04.234Z,62.20
2017-09-23T05:59:31.791Z,61.70
2017-09-23T06:01:59.347Z,61.80
2017-09-23T06:04:26.898Z,62.10
2017-09-23T06:06:54.450Z,61.80
2017-09-23T06:09:22.070Z,61.80
2017-09-23T06:11:49.623Z,61.60
2017-09-23T06:14:17.179Z,61.80
2017-09-23T06:16:45.502Z,61.80
2017-09-23T06:19:13.054Z,61.80
2017-09-23T06:21:40.640Z,62.10
2017-09-23T06:24:08.194Z,61.90
2017-09-23T06:26:35.756Z,61.90
2017-09-23T06:29:03.304Z,61.80
2017-09-23T06:31:30.869Z,62.00
2017-09-23T06:33:58.461Z,62.10
2017-09-23T06:36:26.794Z,62.30
2017-09-23T06:38:54.357Z,62.30
2017-09-23T06:41:21.918Z,62.10
2017-09-23T06:43:49.474Z,62.20
2017-09-23T06:46:17.058Z,62.30
2017-09-23T06:48:45.383Z,62.80
2017-09-23T06:51:12.940Z,62.80
2017-09-23T06:53:40.495Z,63.40
2017-09-23T06:56:08.050Z,63.80
2017-09-23T06:58:35.631Z,64.10
2017-09-23T07:01:03.185Z,64.40
2017-09-23T07:03:30.767Z,64.00
2017-09-23T07:05:58.325Z,64.00
2017-09-23T07:08:25.879Z,64.10
2017-09-23T07:10:53.466Z,63.70
2017-09-23T07:13:21.020Z,63.80
2017-09-23T07:15:48.582Z,63.40
2017-09-23T07:18:16.141Z,63.70
2017-09-23T07:20:43.694Z,64.50
2017-09-23T07:23:11.275Z,64.20
2017-09-23T07:25:39.594Z,64.10
2017-09-23T07:28:07.150Z,64.10
2017-09-23T07:30:34.706Z,64.50
2017-09-23T07:33:02.274Z,65.30
2017-09-23T07:35:29.890Z,65.50
2017-09-23T07:37:58.217Z,66.70
2017-09-23T07:40:25.776Z,66.60
2017-09-23T07:42:53.330Z,66.80
2017-09-23T07:45:20.888Z,67.40
2017-09-23T07:47:48.473Z,67.00
2017-09-23T07:50:16.030Z,66.10
2017-09-23T07:52:43.585Z,66.70
2017-09-23T07:55:11.137Z,66.80
2017-09-23T07:57:38.693Z,66.90
2017-09-23T08:00:06.272Z,67.30
2017-09-23T08:02:33.886Z,67.00
2017-09-23T08:05:01.442Z,67.10
2017-09-23T08:07:28.992Z,67.60
2017-09-23T08:09:57.062Z,67.70
2017-09-23T08:12:24.671Z,67.70
2017-09-23T08:14:52.377Z,68.00
2017-09-23T08:17:19.935Z,67.90
2017-09-23T08:19:47.487Z,67.90
2017-09-23T08:22:15.806Z,68.20
2017-09-23T08:24:43.386Z,68.20
2017-09-23T08:27:10.943Z,68.40
2017-09-23T08:29:38.501Z,69.10
2017-09-23T08:32:06.051Z,69.20
2017-09-23T08:34:33.612Z,68.60
2017-09-23T08:37:01.189Z,68.50
2017-09-23T08:39:28.746Z,68.80
2017-09-23T08:41:57.076Z,69.20
2017-09-23T08:44:24.634Z,69.30
2017-09-23T08:46:52.194Z,69.20
2017-09-23T08:49:19.782Z,69.50
2017-09-23T08:51:47.337Z,68.90
2017-09-23T08:54:14.890Z,69.40
2017-09-23T08:56:42.449Z,69.50
2017-09-23T08:59:10.006Z,70.10
2017-09-23T09:01:37.589Z,69.80
2017-09-23T09:04:05.146Z,69.40
2017-09-23T09:06:32.705Z,68.80
2017-09-23T09:09:00.259Z,69.50
2017-09-23T09:11:27.829Z,70.60
2017-09-23T09:13:55.426Z,70.00
2017-09-23T09:16:22.990Z,70.20
2017-09-23T09:18:50.546Z,69.70
2017-09-23T09:21:18.108Z,69.60
2017-09-23T09:23:45.665Z,69.90
2017-09-23T09:26:13.249Z,69.80
2017-09-23T09:28:40.802Z,70.30
2017-09-23T09:31:08.367Z,70.30
2017-09-23T09:33:35.925Z,71.10
2017-09-23T09:36:03.481Z,71.20
2017-09-23T09:38:31.062Z,71.70
2017-09-23T09:40:58.618Z,72.30
2017-09-23T09:43:26.174Z,72.10
2017-09-23T09:45:53.733Z,71.50
2017-09-23T09:48:21.318Z,71.80
2017-09-23T09:50:48.911Z,71.80
2017-09-23T09:53:16.470Z,72.00
2017-09-23T09:55:44.021Z,71.90
2017-09-23T09:58:11.578Z,71.90
2017-09-23T10:00:39.958Z,72.20
2017-09-23T10:03:08.342Z,72.30
2017-09-23T10:05:35.899Z,72.30
2017-09-23T10:08:04.217Z,73.30
2017-09-23T10:10:31.770Z,74.10
2017-09-23T10:12:59.342Z,74.20
2017-09-23T10:15:26.922Z,74.30
2017-09-23T10:17:54.478Z,73.90
2017-09-23T10:20:22.042Z,73.80
2017-09-23T10:22:49.595Z,74.10
2017-09-23T10:25:17.156Z,74.30
2017-09-23T10:27:44.794Z,73.40
2017-09-23T10:30:12.370Z,73.40
2017-09-23T10:32:40.714Z,73.90
2017-09-23T10:35:08.278Z,73.90
2017-09-23T10:37:35.853Z,74.20
2017-09-23T10:40:03.438Z,74.20
2017-09-23T10:42:30.993Z,74.40
2017-09-23T10:44:58.637Z,74.90
2017-09-23T10:47:26.201Z,75.10
2017-09-23T10:49:53.753Z,75.40
2017-09-23T10:52:21.338Z,75.40
2017-09-23T10:54:48.893Z,76.10
2017-09-23T10:57:16.449Z,76.40
2017-09-23T10:59:44.002Z,76.90
2017-09-23T11:02:11.598Z,75.70
2017-09-23T11:04:39.176Z,75.90
2017-09-23T11:07:06.730Z,76.10
2017-09-23T11:09:34.288Z,75.90
2017-09-23T11:12:01.848Z,76.00
2017-09-23T11:14:29.470Z,76.30
2017-09-23T11:16:57.822Z,75.80
2017-09-23T11:19:25.373Z,75.40
2017-09-23T11:21:52.925Z,75.50
2017-09-23T11:24:20.487Z,75.50
2017-09-23T11:26:48.041Z,75.10
2017-09-23T11:29:15.622Z,74.80
2017-09-23T11:31:43.179Z,74.60
2017-09-23T11:34:10.746Z,75.20
2017-09-23T11:36:38.306Z,75.20
2017-09-23T11:39:05.866Z,75.00
2017-09-23T11:41:33.449Z,74.90
2017-09-23T11:44:01.798Z,74.20
2017-09-23T11:46:29.358Z,74.10
2017-09-23T11:48:56.923Z,74.10
2017-09-23T11:51:24.474Z,73.80
2017-09-23T11:53:52.067Z,73.60
2017-09-23T11:56:20.388Z,73.60
2017-09-23T11:58:47.951Z,73.60
2017-09-23T12:01:15.512Z,73.90
2017-09-23T12:03:43.071Z,74.40
2017-09-23T12:06:10.654Z,74.30
2017-09-23T12:08:38.980Z,75.20
2017-09-23T12:11:06.537Z,75.10
2017-09-23T12:13:34.095Z,75.20
2017-09-23T12:16:01.655Z,74.70
2017-09-23T12:18:29.247Z,74.90
2017-09-23T12:20:56.805Z,75.00
2017-09-23T12:23:24.376Z,74.70
2017-09-23T12:25:51.946Z,75.10
2017-09-23T12:28:19.530Z,76.50
2017-09-23T12:30:47.876Z,75.00
2017-09-23T12:33:15.440Z,75.00
2017-09-23T12:35:42.997Z,75.20
2017-09-23T12:38:10.565Z,74.20
2017-09-23T12:40:38.122Z,73.90
2017-09-23T12:43:05.713Z,73.20
2017-09-23T12:45:33.265Z,74.30
2017-09-23T12:48:00.823Z,74.70
2017-09-23T12:50:29.142Z,76.10
2017-09-23T12:52:56.700Z,76.10
2017-09-23T12:55:24.298Z,76.00
2017-09-23T12:57:52.633Z,75.40
2017-09-23T13:00:20.294Z,75.40
2017-09-23T13:02:47.866Z,74.60
2017-09-23T13:05:15.418Z,74.30
2017-09-23T13:07:43.003Z,75.10
2017-09-23T13:10:10.565Z,76.10
2017-09-23T13:12:38.118Z,76.20
2017-09-23T13:15:05.676Z,75.90
2017-09-23T13:17:33.233Z,76.50
2017-09-23T13:20:00.818Z,77.10
2017-09-23T13:22:29.133Z,77.20
2017-09-23T13:24:56.689Z,77.20
2017-09-23T13:27:24.248Z,77.40
2017-09-23T13:29:51.803Z,77.80
2017-09-23T13:32:19.385Z,77.40
2017-09-23T13:34:46.942Z,76.30
2017-09-23T13:37:14.494Z,75.60
2017-09-23T13:39:42.050Z,75.20
2017-09-23T13:42:09.614Z,75.70
2017-09-23T13:44:37.198Z,76.20
2017-09-23T13:47:04.774Z,76.60
2017-09-23T13:49:33.102Z,77.00
2017-09-23T13:52:00.655Z,76.90
2017-09-23T13:54:28.222Z,77.10
2017-09-23T13:56:55.806Z,77.70
2017-09-23T13:59:23.367Z,77.80
2017-09-23T14:01:50.929Z,77.90
2017-09-23T14:04:18.482Z,78.10
2017-09-23T14:06:46.036Z,78.20
2017-09-23T14:09:13.634Z,78.80
2017-09-23T14:11:41.954Z,78.10
2017-09-23T14:14:09.511Z,78.10
2017-09-23T14:16:37.074Z,77.80
2017-09-23T14:19:04.630Z,77.80
2017-09-23T14:21:32.215Z,77.90
2017-09-23T14:23:59.770Z,78.00
2017-09-23T14:26:27.334Z,78.60
2017-09-23T14:28:55.718Z,78.00
2017-09-23T14:31:23.301Z,77.90
2017-09-23T14:33:50.896Z,78.40
2017-09-23T14:36:18.458Z,78.60
2017-09-23T14:38:46.018Z,79.40
2017-09-23T14:41:13.578Z,79.70
2017-09-23T14:43:41.159Z,79.20
2017-09-23T14:46:08.746Z,79.60
2017-09-23T14:48:37.071Z,79.50
2017-09-23T14:51:04.630Z,79.50
2017-09-23T14:53:32.190Z,79.70
2017-09-23T14:55:59.754Z,79.50
2017-09-23T14:58:27.333Z,79.10
2017-09-23T15:00:54.889Z,78.40
2017-09-23T15:03:22.447Z,79.10
2017-09-23T15:05:50.011Z,79.80
2017-09-23T15:08:17.573Z,80.60
2017-09-23T15:10:45.155Z,80.40
2017-09-23T15:13:13.482Z,79.80
2017-09-23T15:15:41.042Z,79.80
2017-09-23T15:18:08.621Z,79.20
2017-09-23T15:20:36.971Z,78.60
2017-09-23T15:23:04.557Z,78.50
2017-09-23T15:25:32.115Z,78.40
2017-09-23T15:27:59.672Z,78.10
2017-09-23T15:30:27.237Z,78.40
2017-09-23T15:32:54.795Z,77.90
2017-09-23T15:35:22.395Z,78.00
2017-09-23T15:37:50.764Z,77.80
2017-09-23T15:40:19.285Z,77.30
2017-09-23T15:42:46.883Z,77.30
2017-09-23T15:45:15.249Z,77.80
2017-09-23T15:47:42.905Z,77.80
2017-09-23T15:50:10.488Z,78.50
2017-09-23T15:52:38.842Z,79.40
2017-09-23T15:55:06.526Z,79.50
2017-09-23T15:57:34.861Z,79.30
2017-09-23T16:00:02.451Z,79.30
2017-09-23T16:02:30.024Z,79.60
2017-09-23T16:04:58.388Z,79.00
2017-09-23T16:07:25.987Z,79.70
2017-09-23T16:09:53.550Z,78.80
2017-09-23T16:12:21.469Z,78.20
2017-09-23T16:14:49.026Z,78.30
2017-09-23T16:17:16.586Z,77.80
2017-09-23T16:19:44.139Z,77.70
2017-09-23T16:22:11.703Z,77.20
2017-09-23T16:24:39.286Z,76.90
2017-09-23T16:27:06.848Z,76.70
2017-09-23T16:29:35.186Z,77.90
2017-09-23T16:32:02.747Z,77.90
2017-09-23T16:34:30.309Z,77.60
2017-09-23T16:36:57.899Z,77.00
2017-09-23T16:39:26.225Z,77.70
2017-09-23T16:41:53.786Z,78.40
2017-09-23T16:44:21.342Z,77.30
2017-09-23T16:46:48.934Z,76.70
2017-09-23T16:49:16.527Z,76.10
2017-09-23T16:51:44.853Z,76.10
2017-09-23T16:54:12.423Z,76.00
2017-09-23T16:56:39.982Z,75.60
2017-09-23T16:59:07.533Z,75.60
2017-09-23T17:01:35.119Z,76.00
2017-09-23T17:04:02.674Z,76.80
2017-09-23T17:06:30.234Z,77.60
2017-09-23T17:08:57.786Z,78.20
2017-09-23T17:11:25.346Z,78.40
2017-09-23T17:13:52.944Z,77.80
2017-09-23T17:16:20.509Z,77.60
2017-09-23T17:18:48.074Z,78.10
2017-09-23T17:21:15.690Z,78.90
2017-09-23T17:23:43.255Z,79.30
2017-09-23T17:26:10.853Z,80.40
2017-09-23T17:28:38.426Z,81.50
2017-09-23T17:31:06.013Z,81.40
2017-09-23T17:33:33.577Z,80.80
2017-09-23T17:36:01.130Z,81.00
2017-09-23T17:38:28.721Z,80.00
2017-09-23T17:40:57.057Z,79.00
2017-09-23T17:43:24.614Z,78.90
2017-09-23T17:45:52.178Z,79.00
2017-09-23T17:48:20.012Z,79.20
2017-09-23T17:50:47.601Z,78.20
2017-09-23T17:53:15.166Z,77.70
2017-09-23T17:55:42.728Z,77.30
2017-09-23T17:58:10.306Z,77.10
2017-09-23T18:00:37.867Z,77.40
2017-09-23T18:03:05.457Z,77.60
2017-09-23T18:05:33.019Z,77.40
2017-09-23T18:08:00.586Z,76.70
2017-09-23T18:10:28.137Z,76.40
2017-09-23T18:12:55.708Z,76.30
2017-09-23T18:15:23.314Z,76.00
2017-09-23T18:17:50.874Z,76.10
2017-09-23T18:20:18.434Z,77.00
2017-09-23T18:22:48.751Z,77.70
2017-09-23T18:25:16.310Z,77.60
2017-09-23T18:27:43.898Z,77.40
2017-09-23T18:30:12.222Z,77.40
2017-09-23T18:32:39.817Z,77.40
2017-09-23T18:35:07.387Z,77.90
2017-09-23T18:37:35.713Z,77.40
2017-09-23T18:40:03.302Z,77.40
2017-09-23T18:42:30.870Z,76.70
2017-09-23T18:44:59.230Z,76.40
2017-09-23T18:47:26.790Z,76.60
2017-09-23T18:49:54.351Z,76.50
2017-09-23T18:52:21.940Z,76.70
2017-09-23T18:54:49.502Z,76.30
2017-09-23T18:57:17.829Z,76.50
2017-09-23T18:59:45.389Z,76.50
2017-09-23T19:02:12.950Z,76.40
2017-09-23T19:04:40.546Z,77.30
2017-09-23T19:07:08.878Z,77.70
2017-09-23T19:09:36.429Z,77.60
2017-09-23T19:12:03.986Z,77.80
2017-09-23T19:14:31.544Z,77.60
2017-09-23T19:16:59.106Z,78.10
2017-09-23T19:19:26.686Z,77.70
2017-09-23T19:21:54.237Z,77.30
2017-09-23T19:24:21.798Z,77.30
2017-09-23T19:26:49.390Z,76.90
2017-09-23T19:29:16.946Z,76.80
2017-09-23T19:31:45.275Z,76.50
2017-09-23T19:34:12.874Z,76.20
2017-09-23T19:36:40.445Z,76.40
2017-09-23T19:39:08.782Z,76.00
2017-09-23T19:41:36.363Z,76.00
2017-09-23T19:44:03.918Z,76.40
2017-09-23T19:46:31.484Z,76.00
2017-09-23T19:48:59.835Z,75.20
2017-09-23T19:51:27.390Z,75.20
2017-09-23T19:53:54.949Z,75.40
2017-09-23T19:56:22.638Z,75.30
2017-09-23T19:58:50.206Z,75.50
2017-09-23T20:01:17.762Z,75.80
2017-09-23T20:03:45.350Z,75.90
2017-09-23T20:06:13.702Z,75.80
2017-09-23T20:08:41.466Z,75.80
2017-09-23T20:11:09.050Z,75.40
2017-09-23T20:13:37.377Z,76.20
2017-09-23T20:16:04.934Z,76.20
2017-09-23T20:18:32.521Z,76.40
2017-09-23T20:21:00.083Z,76.10
2017-09-23T20:23:27.638Z,75.90
2017-09-23T20:25:55.229Z,75.80
2017-09-23T20:28:22.785Z,76.00
2017-09-23T20:30:51.109Z,75.70
2017-09-23T20:33:18.697Z,75.60
2017-09-23T20:35:46.258Z,75.40
2017-09-23T20:38:13.810Z,75.20
2017-09-23T20:40:41.374Z,75.00
2017-09-23T20:43:08.930Z,75.30
2017-09-23T20:45:36.519Z,75.20
2017-09-23T20:48:04.087Z,75.00
2017-09-23T20:50:31.663Z,75.50
2017-09-23T20:52:59.220Z,75.20
2017-09-23T20:55:26.788Z,75.20
2017-09-23T20:57:54.385Z,75.00
2017-09-23T21:00:21.952Z,76.40
2017-09-23T21:02:50.277Z,76.90
2017-09-23T21:05:17.838Z,76.80
2017-09-23T21:07:45.397Z,76.50
2017-09-23T21:10:12.986Z,77.50
2017-09-23T21:12:40.546Z,78.00
2017-09-23T21:15:08.106Z,77.80
2017-09-23T21:17:35.678Z,77.70
2017-09-23T21:20:04.021Z,78.00
2017-09-23T21:22:31.621Z,78.00
2017-09-23T21:24:59.945Z,76.90
2017-09-23T21:27:27.501Z,76.80
2017-09-23T21:29:55.062Z,76.80
2017-09-23T21:32:22.650Z,77.00
2017-09-23T21:34:50.234Z,77.50
2017-09-23T21:37:18.558Z,78.10
2017-09-23T21:39:46.113Z,78.10
2017-09-23T21:42:13.686Z,78.60
2017-09-23T21:44:41.237Z,79.10
2017-09-23T21:47:08.823Z,79.40
2017-09-23T21:49:36.377Z,79.70
2017-09-23T21:52:03.934Z,79.50
2017-09-23T21:54:31.485Z,79.40
2017-09-23T21:56:59.039Z,79.50
2017-09-23T21:59:26.622Z,78.00
2017-09-23T22:01:54.176Z,78.00
2017-09-23T22:04:23.246Z,78.00
2017-09-23T22:06:50.805Z,78.00
2017-09-23T22:09:18.369Z,78.00
2017-09-23T22:11:45.945Z,77.50
2017-09-23T22:14:13.607Z,76.90
2017-09-23T22:16:41.164Z,77.20
2017-09-23T22:19:08.738Z,76.80
2017-09-23T22:21:36.292Z,76.50
2017-09-23T22:24:03.883Z,76.30
2017-09-23T22:26:32.206Z,76.20
2017-09-23T22:28:59.759Z,76.10
2017-09-23T22:31:27.315Z,76.10
2017-09-23T22:33:54.866Z,75.90
2017-09-23T22:36:22.441Z,75.60
2017-09-23T22:38:50.002Z,75.50
2017-09-23T22:41:17.553Z,75.50
2017-09-23T22:43:45.106Z,75.30
2017-09-23T22:46:12.669Z,76.20
2017-09-23T22:48:40.261Z,76.10
2017-09-23T22:51:07.813Z,75.90
2017-09-23T22:53:35.371Z,75.70
2017-09-23T22:56:02.930Z,75.60
2017-09-23T22:58:30.482Z,76.20
2017-09-23T23:00:58.067Z,76.00
2017-09-23T23:03:26.390Z,75.50
2017-09-23T23:05:53.950Z,75.30
2017-09-23T23:08:21.508Z,75.90
2017-09-23T23:10:49.068Z,75.70
2017-09-23T23:13:16.671Z,75.60
2017-09-23T23:15:44.226Z,75.60
2017-09-23T23:18:11.782Z,75.40
2017-09-23T23:20:39.418Z,76.10
2017-09-23T23:23:06.978Z,76.40
2017-09-23T23:25:34.562Z,76.40
2017-09-23T23:28:02.119Z,76.30
2017-09-23T23:30:29.681Z,76.30
2017-09-23T23:32:57.238Z,76.00
2017-09-23T23:35:24.804Z,76.00
2017-09-23T23:37:52.399Z,77.10
2017-09-23T23:40:19.954Z,77.80
2017-09-23T23:42:47.510Z,78.10
2017-09-23T23:45:15.063Z,78.50
2017-09-23T23:47:43.382Z,77.50
2017-09-23T23:50:10.961Z,77.50
2017-09-23T23:52:38.518Z,77.20
2017-09-23T23:55:06.070Z,76.60
2017-09-23T23:57:33.625Z,76.30
